Time;durP1;ratioP1;P1;durP2;ratioP2;P2;SDS_P1;SDS_P2;PMS_P1;PMS_P2;Temp;Humidity;BMP_temperature;BMP_pressure;BME280_temperature;BME280_humidity;BME280_pressure;Samples;Min_cycle;Max_cycle;Signal;HPM_P1;HPM_P2
2023/08/01 00:02:47;;;;;;;9.57;6.18;;;;;;;;;;6379123;22;20024;-86
2023/08/01 00:05:14;;;;;;;9.05;7.22;;;;;;;;;;6379578;22;20241;-86
2023/08/01 00:07:46;;;;;;;10.93;7.72;;;;;;;;;;6352211;22;20022;-86
2023/08/01 00:10:13;;;;;;;12.68;7.82;;;;;;;;;;6348638;22;20026;-86
2023/08/01 00:12:40;;;;;;;10.80;7.72;;;;;;;;;;6375907;22;20061;-86
2023/08/01 00:15:07;;;;;;;12.43;7.32;;;;;;;;;;6349335;22;20348;-86
2023/08/01 00:17:39;;;;;;;9.75;7.70;;;;;;;;;;6350352;22;20362;-86
2023/08/01 00:20:06;;;;;;;10.40;7.28;;;;;;;;;;6376263;22;20030;-86
2023/08/01 00:22:34;;;;;;;9.52;7.78;;;;;;;;;;6377750;22;20277;-86
2023/08/01 00:25:00;;;;;;;10.00;7.53;;;;;;;;;;6347964;22;20087;-86
2023/08/01 00:27:28;;;;;;;13.65;8.93;;;;;;;;;;6347766;22;20400;-85
2023/08/01 00:30:09;;;;;;;11.27;8.45;;;;;;;;;;6350490;22;20041;-86
2023/08/01 00:32:36;;;;;;;13.23;8.25;;;;;;;;;;6386456;22;20053;-86
2023/08/01 00:35:03;;;;;;;12.55;8.98;;;;;;;;;;6349839;22;20030;-85
2023/08/01 00:37:30;;;;;;;15.73;9.25;;;;;;;;;;6347937;22;20197;-86
2023/08/01 00:39:57;;;;;;;14.93;8.40;;;;;;;;;;6350968;22;20030;-85
2023/08/01 00:42:28;;;;;;;13.73;8.35;;;;;;;;;;6353080;22;20014;-86
2023/08/01 00:44:57;;;;;;;16.85;8.75;;;;;;;;;;6349056;22;20087;-85
2023/08/01 00:47:24;;;;;;;22.95;9.43;;;;;;;;;;6350969;22;20051;-85
2023/08/01 00:49:52;;;;;;;10.95;8.32;;;;;;;;;;6349694;22;20021;-85
2023/08/01 00:52:19;;;;;;;13.50;8.70;;;;;;;;;;6347759;22;20382;-86
2023/08/01 00:54:48;;;;;;;13.02;9.00;;;;;;;;;;6377497;22;20023;-86
2023/08/01 00:57:15;;;;;;;12.63;8.70;;;;;;;;;;6377946;22;20037;-85
2023/08/01 00:59:42;;;;;;;13.50;8.20;;;;;;;;;;6376819;22;20037;-85
2023/08/01 01:02:09;;;;;;;10.73;8.10;;;;;;;;;;6378898;22;20560;-85
2023/08/01 01:08:05;;;;;;;11.77;7.78;;;;;;;;;;6378748;22;20017;-86
2023/08/01 01:10:32;;;;;;;12.75;8.55;;;;;;;;;;6354425;22;20026;-86
2023/08/01 01:13:03;;;;;;;12.25;8.38;;;;;;;;;;6350786;22;20079;-85
2023/08/01 01:15:29;;;;;;;11.32;8.27;;;;;;;;;;6377986;22;20022;-86
2023/08/01 01:17:58;;;;;;;12.30;8.40;;;;;;;;;;6350342;22;20415;-86
2023/08/01 01:20:33;;;;;;;11.32;7.93;;;;;;;;;;6348086;22;20076;-86
2023/08/01 01:23:01;;;;;;;17.08;7.82;;;;;;;;;;6345969;22;20061;-86
2023/08/01 01:25:29;;;;;;;15.13;8.05;;;;;;;;;;6348726;22;20056;-86
2023/08/01 01:27:59;;;;;;;12.00;7.63;;;;;;;;;;6349792;22;20189;-86
2023/08/01 01:30:27;;;;;;;17.15;9.07;;;;;;;;;;6374294;22;20192;-86
2023/08/01 01:32:54;;;;;;;13.20;8.52;;;;;;;;;;6348182;22;20091;-86
2023/08/01 01:35:23;;;;;;;12.73;8.32;;;;;;;;;;6349404;22;20030;-86
2023/08/01 01:37:51;;;;;;;12.30;8.18;;;;;;;;;;6347944;22;20114;-86
2023/08/01 01:40:19;;;;;;;12.60;8.32;;;;;;;;;;6348278;22;20023;-86
2023/08/01 01:42:48;;;;;;;18.20;9.60;;;;;;;;;;6348733;22;20041;-86
2023/08/01 01:45:15;;;;;;;14.55;8.50;;;;;;;;;;6353035;22;20107;-86
2023/08/01 01:47:42;;;;;;;9.85;7.75;;;;;;;;;;6389857;22;20032;-86
2023/08/01 01:50:18;;;;;;;13.02;8.32;;;;;;;;;;6351203;22;20046;-86
2023/08/01 01:52:46;;;;;;;10.88;8.02;;;;;;;;;;6384167;22;20196;-87
2023/08/01 01:55:12;;;;;;;12.93;8.57;;;;;;;;;;6346777;22;20130;-86
2023/08/01 01:57:40;;;;;;;14.40;8.40;;;;;;;;;;6346545;22;20403;-86
2023/08/01 02:00:10;;;;;;;11.52;7.78;;;;;;;;;;6347253;22;20006;-86
2023/08/01 02:02:37;;;;;;;13.02;7.15;;;;;;;;;;6349845;22;20155;-87
2023/08/01 02:05:10;;;;;;;13.77;8.63;;;;;;;;;;6378118;22;20023;-87
2023/08/01 02:07:37;;;;;;;13.52;8.30;;;;;;;;;;6374828;22;20034;-86
2023/08/01 02:10:04;;;;;;;10.48;8.15;;;;;;;;;;6373876;22;20048;-86
2023/08/01 02:12:32;;;;;;;12.32;8.55;;;;;;;;;;6347724;22;20075;-86
2023/08/01 02:14:58;;;;;;;15.95;8.25;;;;;;;;;;6347859;22;20058;-86
2023/08/01 02:17:26;;;;;;;12.75;8.15;;;;;;;;;;6348148;22;20026;-87
2023/08/01 02:19:53;;;;;;;18.67;8.57;;;;;;;;;;6345955;22;20023;-86
2023/08/01 02:22:20;;;;;;;15.27;9.40;;;;;;;;;;6348358;22;20293;-86
2023/08/01 02:24:47;;;;;;;22.95;9.18;;;;;;;;;;6348165;22;20067;-86
2023/08/01 02:27:17;;;;;;;12.90;8.57;;;;;;;;;;6349054;22;20438;-86
2023/08/01 02:29:44;;;;;;;20.50;9.70;;;;;;;;;;6351013;22;20068;-86
2023/08/01 02:32:14;;;;;;;19.05;9.30;;;;;;;;;;6355683;22;20033;-87
2023/08/01 02:34:40;;;;;;;15.52;9.55;;;;;;;;;;6354984;22;20030;-85
2023/08/01 02:37:07;;;;;;;17.40;10.35;;;;;;;;;;6348471;22;20033;-85
2023/08/01 02:39:35;;;;;;;20.67;10.30;;;;;;;;;;6349464;22;20025;-85
2023/08/01 02:42:05;;;;;;;17.13;9.77;;;;;;;;;;6376480;22;20222;-85
2023/08/01 02:44:32;;;;;;;18.15;8.63;;;;;;;;;;6348990;22;20134;-86
2023/08/01 02:46:59;;;;;;;16.92;9.50;;;;;;;;;;6374171;22;20044;-85
2023/08/01 02:49:26;;;;;;;19.45;10.73;;;;;;;;;;6347279;22;20037;-85
2023/08/01 02:51:54;;;;;;;16.75;9.85;;;;;;;;;;6373981;22;20069;-85
2023/08/01 02:54:21;;;;;;;16.92;10.30;;;;;;;;;;6374603;22;20033;-85
2023/08/01 02:56:51;;;;;;;17.73;11.75;;;;;;;;;;6346377;22;20022;-85
2023/08/01 02:59:20;;;;;;;24.60;11.77;;;;;;;;;;6347064;22;20515;-85
2023/08/01 03:01:49;;;;;;;19.30;10.98;;;;;;;;;;6347175;22;20083;-85
2023/08/01 03:04:19;;;;;;;15.52;10.18;;;;;;;;;;6341858;22;20033;-85
2023/08/01 03:06:55;;;;;;;21.70;11.07;;;;;;;;;;6342571;22;20040;-85
2023/08/01 03:09:22;;;;;;;17.60;10.75;;;;;;;;;;6342180;22;20212;-85
2023/08/01 03:11:49;;;;;;;16.58;11.07;;;;;;;;;;6350375;22;20044;-85
2023/08/01 03:14:16;;;;;;;19.60;10.60;;;;;;;;;;6347424;22;20036;-85
2023/08/01 03:16:46;;;;;;;22.67;11.10;;;;;;;;;;6343863;22;20027;-85
2023/08/01 03:19:14;;;;;;;20.65;11.68;;;;;;;;;;6344616;22;20461;-86
2023/08/01 03:21:42;;;;;;;19.95;11.50;;;;;;;;;;6343931;22;20047;-86
2023/08/01 03:24:11;;;;;;;24.58;12.25;;;;;;;;;;6349271;22;20029;-86
2023/08/01 03:26:38;;;;;;;19.38;12.18;;;;;;;;;;6346561;22;20045;-86
2023/08/01 03:29:10;;;;;;;20.38;12.05;;;;;;;;;;6348568;22;20023;-86
2023/08/01 03:32:00;;;;;;;22.88;11.77;;;;;;;;;;6349670;22;20034;-87
2023/08/01 03:35:10;;;;;;;22.40;12.18;;;;;;;;;;6305818;22;19998;-86
2023/08/01 03:38:32;;;;;;;21.17;12.40;;;;;;;;;;6327395;22;20019;-87
2023/08/01 03:41:15;;;;;;;19.00;11.88;;;;;;;;;;6341864;22;20008;-87
2023/08/01 03:44:20;;;;;;;23.50;13.45;;;;;;;;;;6323205;22;20031;-88
2023/08/01 04:02:57;;;;;;;24.48;14.68;;;;;;;;;;6358695;22;20013;-87
2023/08/01 04:08:17;;;;;;;31.00;14.25;;;;;;;;;;6356667;22;20017;-87
2023/08/01 04:11:01;;;;;;;23.27;13.73;;;;;;;;;;6336194;22;20010;-87
2023/08/01 04:14:14;;;;;;;28.08;16.33;;;;;;;;;;6373280;22;20014;-87
2023/08/01 04:19:53;;;;;;;30.73;16.08;;;;;;;;;;6333681;22;20083;-86
2023/08/01 04:30:59;;;;;;;27.85;14.18;;;;;;;;;;6324975;22;19966;-84
2023/08/01 04:42:43;;;;;;;27.77;15.50;;;;;;;;;;6335003;22;20050;-87
2023/08/01 04:48:43;;;;;;;13.25;5.78;;;;;;;;;;6331015;22;20015;-86
2023/08/01 05:11:33;;;;;;;15.10;8.52;;;;;;;;;;6304049;22;20007;-86
2023/08/01 05:14:51;;;;;;;15.65;7.97;;;;;;;;;;6325406;22;20003;-88
2023/08/01 06:01:53;;;;;;;14.77;7.65;;;;;;;;;;6334075;22;20006;-88
2023/08/01 06:32:40;;;;;;;15.35;8.32;;;;;;;;;;6331389;22;20011;-86
2023/08/01 06:49:19;;;;;;;14.07;9.00;;;;;;;;;;6334685;22;20011;-89
2023/08/01 06:52:01;;;;;;;15.48;7.20;;;;;;;;;;6305278;22;20027;-88
2023/08/01 06:54:50;;;;;;;10.55;7.15;;;;;;;;;;6309334;22;20045;-86
2023/08/01 06:57:37;;;;;;;13.52;6.55;;;;;;;;;;6321257;22;20030;-86
2023/08/01 07:00:45;;;;;;;16.38;6.63;;;;;;;;;;6325345;22;20019;-86
2023/08/01 07:21:53;;;;;;;9.30;4.43;;;;;;;;;;6325600;22;20013;-87
2023/08/01 07:25:06;;;;;;;5.20;2.72;;;;;;;;;;6328611;22;20008;-87
2023/08/01 07:31:04;;;;;;;11.00;1.80;;;;;;;;;;6350321;22;20208;-86
2023/08/01 07:33:57;;;;;;;9.13;2.00;;;;;;;;;;6353583;22;20018;-86
2023/08/01 07:36:42;;;;;;;4.07;1.60;;;;;;;;;;6356348;22;20090;-87
2023/08/01 07:39:34;;;;;;;4.63;1.87;;;;;;;;;;6325724;22;20015;-89
2023/08/01 07:42:50;;;;;;;4.93;1.90;;;;;;;;;;6305009;22;20015;-86
2023/08/01 07:45:51;;;;;;;6.07;1.80;;;;;;;;;;6331350;22;20018;-87
2023/08/01 07:49:16;;;;;;;4.70;2.10;;;;;;;;;;6358116;22;20014;-87
2023/08/01 07:52:31;;;;;;;5.95;1.67;;;;;;;;;;6355166;22;20017;-87
2023/08/01 07:55:39;;;;;;;4.68;1.40;;;;;;;;;;6356465;22;20049;-86
2023/08/01 07:58:22;;;;;;;5.68;1.25;;;;;;;;;;6356367;22;20030;-85
2023/08/01 08:01:05;;;;;;;4.18;1.48;;;;;;;;;;6335633;22;20021;-87
2023/08/01 08:03:48;;;;;;;4.03;1.30;;;;;;;;;;6333425;22;20022;-86
2023/08/01 08:12:00;;;;;;;4.28;1.30;;;;;;;;;;6323218;22;20038;-87
2023/08/01 08:14:43;;;;;;;4.40;1.60;;;;;;;;;;6299354;22;20056;-86
2023/08/01 08:17:48;;;;;;;5.15;1.48;;;;;;;;;;6300268;22;20174;-87
2023/08/01 08:21:00;;;;;;;3.90;1.63;;;;;;;;;;6310514;22;20004;-86
2023/08/01 08:24:19;;;;;;;3.30;1.67;;;;;;;;;;6319186;22;20412;-86
2023/08/01 08:27:06;;;;;;;5.05;1.50;;;;;;;;;;6321388;22;20181;-86
2023/08/01 08:29:49;;;;;;;2.65;1.52;;;;;;;;;;6299313;22;20003;-87
2023/08/01 08:33:07;;;;;;;5.97;1.83;;;;;;;;;;6320606;22;20061;-87
2023/08/01 08:35:50;;;;;;;6.70;1.73;;;;;;;;;;6315079;22;20007;-85
2023/08/01 08:38:38;;;;;;;5.15;1.52;;;;;;;;;;6324004;22;20070;-86
2023/08/01 08:43:59;;;;;;;2.92;1.20;;;;;;;;;;6350779;22;20014;-87
2023/08/01 08:46:54;;;;;;;3.17;1.20;;;;;;;;;;6355659;22;20018;-87
2023/08/01 08:50:10;;;;;;;5.15;1.42;;;;;;;;;;6356918;22;20047;-86
2023/08/01 08:53:01;;;;;;;3.88;1.23;;;;;;;;;;6327343;22;20014;-85
2023/08/01 08:56:10;;;;;;;3.78;1.40;;;;;;;;;;6348686;22;20015;-86
2023/08/01 08:59:29;;;;;;;;;;;;;;;;;;;;;
2023/08/01 09:05:34;;;;;;;1.73;1.00;;;;;;;;;;6350109;22;20011;-86
2023/08/01 09:08:46;;;;;;;2.45;1.02;;;;;;;;;;6322458;22;20027;-85
2023/08/01 09:11:27;;;;;;;3.95;0.63;;;;;;;;;;6323163;22;20450;-87
2023/08/01 09:14:29;;;;;;;4.88;1.20;;;;;;;;;;6347298;22;20097;-86
2023/08/01 09:17:18;;;;;;;1.67;0.70;;;;;;;;;;6352052;22;20072;-86
2023/08/01 09:20:05;;;;;;;2.70;0.90;;;;;;;;;;6326722;22;20015;-87
2023/08/01 09:22:54;;;;;;;3.80;0.88;;;;;;;;;;6321598;22;20060;-85
2023/08/01 09:25:39;;;;;;;1.80;0.80;;;;;;;;;;6348112;22;20003;-87
2023/08/01 09:28:38;;;;;;;2.33;0.90;;;;;;;;;;6324954;22;19998;-86
2023/08/01 09:36:40;;;;;;;2.65;0.90;;;;;;;;;;6337648;22;20021;-86
2023/08/01 09:39:46;;;;;;;1.63;0.98;;;;;;;;;;6343881;22;20083;-86
2023/08/01 09:42:37;;;;;;;1.65;0.70;;;;;;;;;;6329724;22;20007;-86
2023/08/01 09:45:18;;;;;;;1.77;0.70;;;;;;;;;;6311266;22;20011;-86
2023/08/01 09:48:11;;;;;;;;;;;;;;;;;;;;;
2023/08/01 09:51:28;;;;;;;1.98;0.65;;;;;;;;;;6356849;22;20014;-86
2023/08/01 09:54:36;;;;;;;1.40;0.90;;;;;;;;;;6354466;22;20010;-86
2023/08/01 10:04:03;;;;;;;1.70;0.85;;;;;;;;;;6277072;22;19915;-86
2023/08/01 10:09:22;;;;;;;3.63;0.93;;;;;;;;;;6338284;22;19999;-89
2023/08/01 10:12:06;;;;;;;2.10;1.00;;;;;;;;;;6356856;22;20038;-88
2023/08/01 10:15:14;;;;;;;2.50;1.15;;;;;;;;;;6339228;22;20002;-89
2023/08/01 10:21:02;;;;;;;4.72;1.00;;;;;;;;;;6354312;22;20042;-88
2023/08/01 10:23:45;;;;;;;3.75;0.80;;;;;;;;;;6331868;22;20023;-88
2023/08/01 10:26:32;;;;;;;2.72;0.90;;;;;;;;;;6263026;22;20270;-89
2023/08/01 10:29:18;;;;;;;2.47;0.83;;;;;;;;;;6259871;22;20004;-87
2023/08/01 10:32:13;;;;;;;2.60;0.80;;;;;;;;;;6313759;22;20188;-88
2023/08/01 10:35:02;;;;;;;5.13;1.00;;;;;;;;;;6356885;22;20022;-88
2023/08/01 10:38:06;;;;;;;7.93;0.90;;;;;;;;;;6328927;22;20215;-89
2023/08/01 10:40:51;;;;;;;2.70;0.77;;;;;;;;;;6334451;22;20015;-89
2023/08/01 10:43:43;;;;;;;1.58;0.45;;;;;;;;;;6353418;22;20015;-88
2023/08/01 10:49:59;;;;;;;2.35;0.65;;;;;;;;;;6255781;22;20093;-87
2023/08/01 10:52:41;;;;;;;4.05;0.60;;;;;;;;;;6328115;22;20026;-88
2023/08/01 10:55:50;;;;;;;3.92;0.75;;;;;;;;;;6383442;22;20029;-88
2023/08/01 10:58:55;;;;;;;2.28;0.70;;;;;;;;;;6348328;22;20089;-85
2023/08/01 11:02:02;;;;;;;3.63;0.77;;;;;;;;;;6360021;22;20014;-87
2023/08/01 11:04:43;;;;;;;;;;;;;;;;;;6362977;22;20014;-87
2023/08/01 11:07:27;;;;;;;1.95;0.70;;;;;;;;;;6376363;22;19948;-87
2023/08/01 11:10:16;;;;;;;2.90;0.77;;;;;;;;;;6362695;22;20073;-88
2023/08/01 11:13:02;;;;;;;1.45;0.57;;;;;;;;;;6384333;22;20043;-87
2023/08/01 11:16:06;;;;;;;3.40;0.65;;;;;;;;;;6347250;22;20022;-88
2023/08/01 11:22:00;;;;;;;2.03;0.63;;;;;;;;;;6328923;22;20057;-89
2023/08/01 11:24:54;;;;;;;1.13;0.50;;;;;;;;;;6324707;22;20131;-87
2023/08/01 11:28:00;;;;;;;3.28;0.73;;;;;;;;;;6321285;22;20067;-86
2023/08/01 11:30:47;;;;;;;1.73;0.52;;;;;;;;;;6324539;22;20417;-86
2023/08/01 11:33:40;;;;;;;1.25;0.40;;;;;;;;;;6327941;22;20026;-87
2023/08/01 11:36:24;;;;;;;2.00;0.70;;;;;;;;;;6322220;22;20015;-87
2023/08/01 11:39:16;;;;;;;1.42;0.65;;;;;;;;;;6323254;22;20045;-88
2023/08/01 11:42:09;;;;;;;2.78;0.70;;;;;;;;;;6324868;22;20230;-88
2023/08/01 11:47:26;;;;;;;3.70;0.60;;;;;;;;;;6320718;22;20012;-89
2023/08/01 11:52:57;;;;;;;1.45;0.60;;;;;;;;;;6323606;22;20011;-87
2023/08/01 11:55:45;;;;;;;1.30;0.70;;;;;;;;;;6322647;22;20015;-86
2023/08/01 11:59:04;;;;;;;2.60;0.50;;;;;;;;;;6319705;22;20120;-87
2023/08/01 12:01:51;;;;;;;0.90;0.40;;;;;;;;;;6321959;22;20078;-86
2023/08/01 12:04:45;;;;;;;1.67;0.47;;;;;;;;;;6322555;22;20100;-87
2023/08/01 12:07:26;;;;;;;1.00;0.50;;;;;;;;;;6311963;22;20003;-87
2023/08/01 12:10:16;;;;;;;1.73;0.73;;;;;;;;;;6298466;22;20007;-88
2023/08/01 12:13:05;;;;;;;3.00;0.50;;;;;;;;;;6268207;22;20062;-86
2023/08/01 12:15:52;;;;;;;3.38;0.70;;;;;;;;;;6293339;22;20085;-86
2023/08/01 12:18:47;;;;;;;2.92;0.50;;;;;;;;;;6293832;22;20140;-86
2023/08/01 12:21:37;;;;;;;1.90;0.47;;;;;;;;;;6280110;22;20019;-88
2023/08/01 12:24:27;;;;;;;3.28;0.63;;;;;;;;;;6294783;22;20050;-89
2023/08/01 12:27:36;;;;;;;0.80;0.50;;;;;;;;;;6292571;22;20034;-88
2023/08/01 12:30:24;;;;;;;1.40;0.47;;;;;;;;;;6277059;22;20015;-89
2023/08/01 12:33:05;;;;;;;4.47;0.98;;;;;;;;;;6277269;22;20020;-89
2023/08/01 12:39:19;;;;;;;2.22;0.70;;;;;;;;;;6310990;22;20064;-90
2023/08/01 12:47:42;;;;;;;1.73;0.68;;;;;;;;;;6285802;22;20022;-89
2023/08/01 12:50:26;;;;;;;0.85;0.65;;;;;;;;;;6333762;22;20027;-89
2023/08/01 12:56:05;;;;;;;1.92;0.82;;;;;;;;;;6359680;22;20071;-89
2023/08/01 12:58:46;;;;;;;2.20;0.73;;;;;;;;;;6300940;22;20052;-89
2023/08/01 13:01:38;;;;;;;2.15;0.68;;;;;;;;;;6357795;22;20003;-91
2023/08/01 13:04:19;;;;;;;1.80;0.50;;;;;;;;;;6348914;22;20024;-89
2023/08/01 13:57:57;;;;;;;1.40;0.60;;;;;;;;;;6320956;22;20023;-86
2023/08/01 14:00:54;;;;;;;1.88;0.57;;;;;;;;;;6326094;22;20030;-87
2023/08/01 14:03:36;;;;;;;1.42;0.50;;;;;;;;;;6321039;22;20027;-87
2023/08/01 14:06:25;;;;;;;5.15;0.75;;;;;;;;;;6326105;22;20019;-89
2023/08/01 14:09:19;;;;;;;2.70;0.52;;;;;;;;;;6319459;22;20010;-89
2023/08/01 14:12:05;;;;;;;3.35;0.80;;;;;;;;;;6320743;22;20031;-87
2023/08/01 14:14:50;;;;;;;4.28;0.90;;;;;;;;;;6322648;22;20003;-89
2023/08/01 14:18:02;;;;;;;4.07;0.73;;;;;;;;;;6326221;22;20003;-89
2023/08/01 14:20:51;;;;;;;3.90;0.77;;;;;;;;;;6307907;22;20026;-89
2023/08/01 14:23:42;;;;;;;5.95;0.82;;;;;;;;;;6322128;22;20075;-90
2023/08/01 14:26:52;;;;;;;3.75;0.60;;;;;;;;;;6327380;22;20045;-89
2023/08/01 14:29:33;;;;;;;2.28;0.75;;;;;;;;;;6329743;22;20025;-89
2023/08/01 14:32:19;;;;;;;2.28;0.80;;;;;;;;;;6329636;22;20010;-88
2023/08/01 14:35:15;;;;;;;4.20;1.02;;;;;;;;;;6329680;22;20267;-88
2023/08/01 14:41:24;;;;;;;2.53;0.68;;;;;;;;;;6289920;22;20035;-89
2023/08/01 14:44:15;;;;;;;3.25;0.80;;;;;;;;;;6295834;22;20022;-89
2023/08/01 14:47:00;;;;;;;3.55;1.00;;;;;;;;;;6293773;22;20068;-89
2023/08/01 14:49:47;;;;;;;2.13;0.57;;;;;;;;;;6272380;22;20003;-89
2023/08/01 14:52:34;;;;;;;2.38;0.80;;;;;;;;;;6291143;22;20024;-88
2023/08/01 14:55:20;;;;;;;1.70;0.57;;;;;;;;;;6291915;22;20019;-87
2023/08/01 15:01:28;;;;;;;4.75;0.73;;;;;;;;;;6297686;22;20061;-89
2023/08/01 15:04:10;;;;;;;2.35;0.63;;;;;;;;;;6325375;22;20183;-89
2023/08/01 15:06:55;;;;;;;5.07;0.93;;;;;;;;;;6364883;22;20014;-89
2023/08/01 15:09:44;;;;;;;4.72;1.00;;;;;;;;;;6394270;22;20006;-90
2023/08/01 15:12:30;;;;;;;2.33;0.80;;;;;;;;;;6392234;22;20017;-90
2023/08/01 15:15:18;;;;;;;4.43;1.02;;;;;;;;;;6293074;22;20030;-89
2023/08/01 15:18:02;;;;;;;5.32;1.10;;;;;;;;;;6339755;22;20007;-88
2023/08/01 15:20:43;;;;;;;2.00;0.60;;;;;;;;;;6338626;22;20015;-89
2023/08/01 15:23:31;;;;;;;5.18;0.77;;;;;;;;;;6356978;22;20033;-88
2023/08/01 15:26:12;;;;;;;1.17;0.63;;;;;;;;;;6357486;22;20284;-89
2023/08/01 15:29:00;;;;;;;1.45;0.70;;;;;;;;;;6353992;22;20022;-89
2023/08/01 15:31:40;;;;;;;3.75;0.85;;;;;;;;;;6331861;22;20129;-89
2023/08/01 15:34:22;;;;;;;3.75;0.52;;;;;;;;;;6358853;22;20011;-86
2023/08/01 15:37:19;;;;;;;2.15;0.63;;;;;;;;;;6349250;22;20029;-86
2023/08/01 15:40:10;;;;;;;2.50;0.88;;;;;;;;;;6322773;22;20029;-87
2023/08/01 15:43:03;;;;;;;4.78;0.85;;;;;;;;;;6335329;22;20015;-87
2023/08/01 15:45:45;;;;;;;4.15;0.80;;;;;;;;;;6333514;22;20010;-87
2023/08/01 15:48:35;;;;;;;3.42;0.65;;;;;;;;;;6331381;22;20011;-89
2023/08/01 15:51:17;;;;;;;4.88;0.80;;;;;;;;;;6330545;22;20025;-88
2023/08/01 15:53:59;;;;;;;2.55;0.65;;;;;;;;;;6355074;22;20072;-90
2023/08/01 15:56:42;;;;;;;1.83;0.77;;;;;;;;;;6334032;22;20135;-90
2023/08/01 15:59:28;;;;;;;3.03;0.60;;;;;;;;;;6356601;22;20300;-88
2023/08/01 16:02:44;;;;;;;;;;;;;;;;;;;;;
2023/08/01 16:05:43;;;;;;;2.33;0.60;;;;;;;;;;6357150;22;20014;-89
2023/08/01 16:08:39;;;;;;;5.03;0.75;;;;;;;;;;6360379;22;20070;-90
2023/08/01 16:11:23;;;;;;;6.80;1.10;;;;;;;;;;6361028;22;20021;-89
2023/08/01 16:16:49;;;;;;;6.30;0.70;;;;;;;;;;6295238;22;20012;-88
2023/08/01 16:22:18;;;;;;;2.95;0.60;;;;;;;;;;6351063;22;20015;-90
2023/08/01 16:27:41;;;;;;;5.60;0.80;;;;;;;;;;6327731;22;20557;-90
2023/08/01 16:33:05;;;;;;;3.30;0.90;;;;;;;;;;6351340;22;20014;-88
2023/08/01 16:35:49;;;;;;;6.57;0.95;;;;;;;;;;6357104;22;20417;-88
2023/08/01 16:38:33;;;;;;;3.08;0.75;;;;;;;;;;6357129;22;20052;-88
2023/08/01 16:41:20;;;;;;;3.83;0.95;;;;;;;;;;6355507;22;20021;-88
2023/08/01 16:44:06;;;;;;;2.38;0.65;;;;;;;;;;6332231;22;20050;-89
2023/08/01 16:47:10;;;;;;;3.40;0.85;;;;;;;;;;6357768;22;20015;-90
2023/08/01 16:49:55;;;;;;;3.17;0.60;;;;;;;;;;6353612;22;20080;-88
2023/08/01 16:52:41;;;;;;;2.33;0.60;;;;;;;;;;6354583;22;20018;-88
2023/08/01 16:55:22;;;;;;;5.40;0.98;;;;;;;;;;6355731;22;20026;-87
2023/08/01 16:58:16;;;;;;;3.42;1.05;;;;;;;;;;6327658;22;20048;-87
2023/08/01 17:00:58;;;;;;;4.05;0.93;;;;;;;;;;6326987;22;20022;-88
2023/08/01 17:03:41;;;;;;;6.55;1.25;;;;;;;;;;6334434;22;20030;-88
2023/08/01 17:06:26;;;;;;;2.45;0.70;;;;;;;;;;6360926;22;20011;-88
2023/08/01 17:09:09;;;;;;;2.08;0.60;;;;;;;;;;6328967;22;20007;-89
2023/08/01 17:11:52;;;;;;;4.40;0.80;;;;;;;;;;6334303;22;20130;-88
2023/08/01 17:14:36;;;;;;;3.40;0.80;;;;;;;;;;6331382;22;20010;-89
2023/08/01 17:17:22;;;;;;;1.27;0.70;;;;;;;;;;6356276;22;20312;-88
2023/08/01 17:20:08;;;;;;;3.53;0.70;;;;;;;;;;6333911;22;20037;-88
2023/08/01 17:22:53;;;;;;;3.63;0.80;;;;;;;;;;6356042;22;20033;-88
2023/08/01 17:25:35;;;;;;;4.57;0.68;;;;;;;;;;6330213;22;20023;-88
2023/08/01 17:28:10;;;;;;;3.17;0.57;;;;;;;;;;6355167;22;20023;-90
2023/08/01 17:30:52;;;;;;;4.28;0.57;;;;;;;;;;6330908;22;20038;-88
2023/08/01 17:33:35;;;;;;;4.65;1.05;;;;;;;;;;6322608;22;20049;-89
2023/08/01 17:36:18;;;;;;;4.55;0.70;;;;;;;;;;6388746;22;20025;-87
2023/08/01 17:46:06;;;;;;;2.63;0.40;;;;;;;;;;6393170;22;20046;-89
2023/08/01 17:49:05;;;;;;;1.85;1.00;;;;;;;;;;6369809;22;20002;-90
2023/08/01 17:51:59;;;;;;;4.05;0.85;;;;;;;;;;6390786;22;20073;-87
2023/08/01 17:54:39;;;;;;;1.30;0.40;;;;;;;;;;6392083;22;20006;-89
2023/08/01 17:57:26;;;;;;;3.25;0.60;;;;;;;;;;6390982;22;20034;-88
2023/08/01 18:00:14;;;;;;;2.63;0.50;;;;;;;;;;6366716;22;20089;-90
2023/08/01 18:03:46;;;;;;;1.63;0.40;;;;;;;;;;6391335;22;20002;-89
2023/08/01 18:06:30;;;;;;;3.78;0.75;;;;;;;;;;6393806;22;20050;-89
2023/08/01 18:11:51;;;;;;;0.70;0.38;;;;;;;;;;6329214;22;20071;-90
2023/08/01 18:14:57;;;;;;;2.28;0.50;;;;;;;;;;6331308;22;20023;-88
2023/08/01 18:18:04;;;;;;;0.52;0.32;;;;;;;;;;6324972;22;20015;-89
2023/08/01 18:24:30;;;;;;;1.13;0.63;;;;;;;;;;6329583;22;20051;-89
2023/08/01 18:35:48;;;;;;;0.77;0.30;;;;;;;;;;6358870;22;20007;-88
2023/08/01 18:38:32;;;;;;;0.50;0.30;;;;;;;;;;6332153;22;20026;-88
2023/08/01 18:41:13;;;;;;;3.78;0.57;;;;;;;;;;6336050;22;20015;-89
2023/08/01 18:44:00;;;;;;;2.63;0.47;;;;;;;;;;6322777;22;20096;-88
2023/08/01 18:46:48;;;;;;;2.10;0.50;;;;;;;;;;6333009;22;20030;-89
2023/08/01 18:49:34;;;;;;;3.63;0.90;;;;;;;;;;6335226;22;20026;-89
2023/08/01 18:52:40;;;;;;;2.85;0.75;;;;;;;;;;6361110;22;20138;-89
2023/08/01 18:55:42;;;;;;;2.60;0.63;;;;;;;;;;6336865;22;20034;-89
2023/08/01 19:00:58;;;;;;;2.72;0.75;;;;;;;;;;6345395;22;20015;-88
2023/08/01 19:03:39;;;;;;;1.20;0.70;;;;;;;;;;6360529;22;20066;-88
2023/08/01 19:06:16;;;;;;;2.65;0.55;;;;;;;;;;6332824;22;20023;-89
2023/08/01 19:08:56;;;;;;;1.83;0.70;;;;;;;;;;6335805;22;20023;-89
2023/08/01 19:11:50;;;;;;;1.83;0.93;;;;;;;;;;6332233;22;20116;-88
2023/08/01 19:14:43;;;;;;;4.20;0.60;;;;;;;;;;6335240;22;20054;-90
2023/08/01 19:17:28;;;;;;;5.13;0.80;;;;;;;;;;6335630;22;20064;-90
2023/08/01 19:20:15;;;;;;;3.00;0.70;;;;;;;;;;6357712;22;20030;-89
2023/08/01 19:22:58;;;;;;;4.75;0.70;;;;;;;;;;6332001;22;20023;-88
2023/08/01 19:25:38;;;;;;;1.00;0.70;;;;;;;;;;6356231;22;20021;-88
2023/08/01 19:31:55;;;;;;;2.38;0.70;;;;;;;;;;6358199;22;19918;-90
2023/08/01 19:34:27;;;;;;;2.88;1.63;;;;;;;;;;6330237;22;20046;-88
2023/08/01 19:37:07;;;;;;;5.90;1.23;;;;;;;;;;6333457;22;20014;-88
2023/08/01 19:39:49;;;;;;;2.40;0.77;;;;;;;;;;6331672;22;20056;-88
2023/08/01 19:42:32;;;;;;;5.13;1.50;;;;;;;;;;6353880;22;20037;-88
2023/08/01 19:45:13;;;;;;;4.50;0.60;;;;;;;;;;6334102;22;20037;-88
2023/08/01 19:48:03;;;;;;;3.53;1.30;;;;;;;;;;6334792;22;20038;-88
2023/08/01 19:50:55;;;;;;;1.48;0.93;;;;;;;;;;6362015;22;20014;-89
2023/08/01 19:53:36;;;;;;;2.30;1.00;;;;;;;;;;6356840;22;20026;-89
2023/08/01 19:56:17;;;;;;;5.07;1.48;;;;;;;;;;6336076;22;20018;-88
2023/08/01 19:58:59;;;;;;;3.17;0.90;;;;;;;;;;6337099;22;20010;-90
2023/08/01 20:02:08;;;;;;;3.05;0.95;;;;;;;;;;6331402;22;20019;-89
2023/08/01 20:04:49;;;;;;;6.53;1.90;;;;;;;;;;6308625;22;20011;-90
2023/08/01 20:07:32;;;;;;;4.45;1.45;;;;;;;;;;6318121;22;20031;-88
2023/08/01 20:10:14;;;;;;;7.57;2.08;;;;;;;;;;6325127;22;20018;-89
2023/08/01 20:12:54;;;;;;;8.27;1.85;;;;;;;;;;6326861;22;20012;-88
2023/08/01 20:15:35;;;;;;;3.08;1.33;;;;;;;;;;6316415;22;20011;-88
2023/08/01 20:18:25;;;;;;;2.17;1.52;;;;;;;;;;6304598;22;20084;-90
2023/08/01 20:21:08;;;;;;;4.68;1.42;;;;;;;;;;6303983;22;20027;-89
2023/08/01 20:23:49;;;;;;;7.53;1.45;;;;;;;;;;6301635;22;20023;-87
2023/08/01 20:26:34;;;;;;;8.40;1.83;;;;;;;;;;6295633;22;20049;-86
2023/08/01 20:29:31;;;;;;;5.80;1.60;;;;;;;;;;6320252;22;20019;-87
2023/08/01 20:32:02;;;;;;;5.25;1.70;;;;;;;;;;6295158;22;20107;-87
2023/08/01 20:34:37;;;;;;;4.30;1.33;;;;;;;;;;6296777;22;20023;-86
2023/08/01 20:37:18;;;;;;;5.53;1.60;;;;;;;;;;6294795;22;20086;-86
2023/08/01 20:39:58;;;;;;;10.68;1.70;;;;;;;;;;6298588;22;20011;-87
2023/08/01 20:42:48;;;;;;;2.45;1.55;;;;;;;;;;6299984;22;20026;-87
2023/08/01 20:45:31;;;;;;;4.05;1.58;;;;;;;;;;6321935;22;20010;-86
2023/08/01 20:48:13;;;;;;;3.17;1.50;;;;;;;;;;6307134;22;20007;-87
2023/08/01 20:50:57;;;;;;;2.17;1.23;;;;;;;;;;6293547;22;20019;-88
2023/08/01 20:53:34;;;;;;;4.70;1.60;;;;;;;;;;6297117;22;20019;-87
2023/08/01 20:56:02;;;;;;;6.35;1.67;;;;;;;;;;6319821;22;20031;-86
2023/08/01 20:58:43;;;;;;;3.40;1.30;;;;;;;;;;6298610;22;20011;-87
2023/08/01 21:01:24;;;;;;;10.95;1.80;;;;;;;;;;6295875;22;20028;-86
2023/08/01 21:04:04;;;;;;;10.18;1.95;;;;;;;;;;6296735;22;20019;-86
2023/08/01 21:06:47;;;;;;;4.95;1.60;;;;;;;;;;6294181;22;20023;-88
2023/08/01 21:09:20;;;;;;;3.60;1.75;;;;;;;;;;6315245;22;20062;-86
2023/08/01 21:12:01;;;;;;;2.22;1.23;;;;;;;;;;6290897;22;20030;-86
2023/08/01 21:14:37;;;;;;;;;;;;;;;;;;6285877;22;20076;-86
2023/08/01 21:17:10;;;;;;;2.50;1.92;;;;;;;;;;6309510;22;19914;-86
2023/08/01 21:19:40;;;;;;;7.63;1.70;;;;;;;;;;6308208;22;20397;-86
2023/08/01 21:22:12;;;;;;;7.47;1.70;;;;;;;;;;6286329;22;20131;-87
2023/08/01 21:25:01;;;;;;;3.78;1.92;;;;;;;;;;6279647;22;20027;-87
2023/08/01 21:27:28;;;;;;;6.47;1.40;;;;;;;;;;6289673;22;20034;-86
2023/08/01 21:30:13;;;;;;;3.45;1.75;;;;;;;;;;6292357;22;20027;-86
2023/08/01 21:32:43;;;;;;;7.30;1.55;;;;;;;;;;6281654;22;20031;-86
2023/08/01 21:35:10;;;;;;;8.77;1.65;;;;;;;;;;6282578;22;20075;-85
2023/08/01 21:37:37;;;;;;;7.78;1.98;;;;;;;;;;6282147;22;20037;-86
2023/08/01 21:40:07;;;;;;;6.68;2.03;;;;;;;;;;6284360;22;20024;-86
2023/08/01 21:42:41;;;;;;;8.85;1.73;;;;;;;;;;6318153;22;20197;-86
2023/08/01 21:45:17;;;;;;;5.78;2.08;;;;;;;;;;6286706;22;20023;-86